Time;durP1;ratioP1;P1;durP2;ratioP2;P2;SDS_P1;SDS_P2;PMS_P1;PMS_P2;Temp;Humidity;BMP_temperature;BMP_pressure;BME280_temperature;BME280_humidity;BME280_pressure;Samples;Min_cycle;Max_cycle;Signal;HPM_P1;HPM_P2
2021/08/18 00:00:14;;;;;;;21.60;18.40;;;14.70;99.90;;;;;;5094296;28;20589;-67
2021/08/18 00:02:39;;;;;;;23.30;17.80;;;14.70;99.90;;;;;;5094002;28;20193;-68
2021/08/18 00:05:08;;;;;;;26.17;16.70;;;14.70;99.90;;;;;;5093141;28;20177;-67
2021/08/18 00:07:34;;;;;;;24.17;17.10;;;14.70;99.90;;;;;;5094307;28;20272;-68
2021/08/18 00:09:59;;;;;;;23.90;17.30;;;14.70;99.90;;;;;;5093830;28;20225;-67
2021/08/18 00:12:25;;;;;;;21.53;16.97;;;14.70;99.90;;;;;;5094183;28;20592;-67
2021/08/18 00:14:51;;;;;;;24.13;17.43;;;14.80;99.90;;;;;;5094261;28;20165;-68
2021/08/18 00:17:17;;;;;;;25.53;18.27;;;14.80;99.90;;;;;;5094117;28;20234;-67
2021/08/18 00:19:43;;;;;;;17.63;15.90;;;14.80;99.90;;;;;;5092275;28;20282;-67
2021/08/18 00:22:08;;;;;;;23.90;18.73;;;14.80;99.90;;;;;;5092285;28;20677;-68
2021/08/18 00:24:34;;;;;;;22.03;18.47;;;14.80;99.90;;;;;;5094091;28;20169;-67
2021/08/18 00:26:59;;;;;;;26.43;21.00;;;14.80;99.90;;;;;;5092390;28;20180;-68
2021/08/18 00:29:25;;;;;;;23.20;20.10;;;14.80;99.90;;;;;;5093715;28;20221;-67
2021/08/18 00:31:51;;;;;;;23.43;19.40;;;14.80;99.90;;;;;;5093317;28;20630;-67
2021/08/18 00:34:16;;;;;;;23.90;20.53;;;14.80;99.90;;;;;;5092393;28;20731;-68
2021/08/18 00:36:42;;;;;;;26.27;21.07;;;14.80;99.90;;;;;;5093529;28;20310;-67
2021/08/18 00:39:07;;;;;;;24.83;20.13;;;14.80;99.90;;;;;;5091919;28;20246;-67
2021/08/18 00:41:33;;;;;;;22.07;16.60;;;14.80;99.90;;;;;;5093151;28;20200;-67
2021/08/18 00:43:59;;;;;;;20.57;16.03;;;14.80;99.90;;;;;;5093452;28;20185;-67
2021/08/18 00:46:25;;;;;;;24.20;17.40;;;14.90;99.90;;;;;;5092203;28;20166;-67
2021/08/18 00:48:50;;;;;;;21.83;16.50;;;14.90;99.90;;;;;;5093329;28;20265;-67
2021/08/18 00:51:16;;;;;;;22.40;15.63;;;14.90;99.90;;;;;;5091768;28;20650;-68
2021/08/18 00:53:41;;;;;;;21.50;15.70;;;14.90;99.90;;;;;;5093416;28;20178;-67
2021/08/18 00:56:10;;;;;;;24.97;15.87;;;14.90;99.90;;;;;;5092027;28;20196;-68
2021/08/18 00:58:35;;;;;;;22.53;16.17;;;14.90;99.90;;;;;;5092052;28;20564;-67
2021/08/18 01:01:01;;;;;;;20.33;15.77;;;14.90;99.90;;;;;;5093012;28;20201;-68
2021/08/18 01:03:28;;;;;;;20.17;15.73;;;14.90;99.90;;;;;;5091914;28;20564;-67
2021/08/18 01:05:54;;;;;;;21.47;15.57;;;14.90;99.90;;;;;;5092816;28;20203;-67
2021/08/18 01:08:20;;;;;;;20.57;15.13;;;14.90;99.90;;;;;;5093136;28;20197;-67
2021/08/18 01:10:46;;;;;;;20.43;15.67;;;14.90;99.90;;;;;;5091180;28;20746;-67
2021/08/18 01:13:11;;;;;;;26.00;18.20;;;14.90;99.90;;;;;;5093180;28;20697;-67
2021/08/18 01:15:37;;;;;;;20.47;15.27;;;14.90;99.90;;;;;;5092794;28;20182;-67
2021/08/18 01:18:05;;;;;;;23.23;17.40;;;14.90;99.90;;;;;;5092825;28;20531;-67
2021/08/18 01:20:34;;;;;;;25.33;16.83;;;14.90;99.90;;;;;;5092228;28;20201;-67
2021/08/18 01:23:03;;;;;;;24.00;16.17;;;14.90;99.90;;;;;;5091534;28;20673;-67
2021/08/18 01:25:29;;;;;;;21.40;16.07;;;15.00;99.90;;;;;;5092546;28;20181;-67
2021/08/18 01:27:58;;;;;;;25.37;18.00;;;15.00;99.90;;;;;;5091369;28;20170;-68
2021/08/18 01:30:26;;;;;;;20.83;16.77;;;15.00;99.90;;;;;;5090878;28;20197;-68
2021/08/18 01:33:00;;;;;;;20.80;16.97;;;15.00;99.90;;;;;;5091359;28;20655;-67
2021/08/18 01:35:30;;;;;;;26.57;19.20;;;15.00;99.90;;;;;;5091178;28;20173;-67
2021/08/18 01:37:56;;;;;;;22.67;17.40;;;14.90;99.90;;;;;;5090971;28;20205;-68
2021/08/18 01:40:23;;;;;;;25.87;19.00;;;15.00;99.90;;;;;;5090320;28;20243;-67
2021/08/18 01:42:49;;;;;;;21.87;16.13;;;15.00;99.90;;;;;;5092110;28;20170;-67
2021/08/18 01:45:34;;;;;;;27.70;19.30;;;15.00;99.90;;;;;;5091321;28;20174;-67
2021/08/18 01:48:06;;;;;;;23.90;19.37;;;15.00;99.90;;;;;;5072044;28;20178;-67
2021/08/18 01:50:32;;;;;;;19.57;15.50;;;15.00;99.90;;;;;;5072096;28;20194;-67
2021/08/18 01:52:57;;;;;;;26.10;16.73;;;14.90;99.90;;;;;;5090834;28;20184;-67
2021/08/18 01:55:24;;;;;;;22.27;16.33;;;15.00;99.90;;;;;;5092347;28;20727;-67
2021/08/18 01:57:50;;;;;;;21.93;17.87;;;15.00;99.90;;;;;;5090130;28;20193;-67
2021/08/18 02:00:16;;;;;;;23.20;17.87;;;15.00;99.90;;;;;;5092036;28;20559;-68
2021/08/18 02:02:43;;;;;;;25.80;17.20;;;15.00;99.90;;;;;;5091846;28;20197;-67
2021/08/18 02:05:10;;;;;;;26.87;17.17;;;15.00;99.90;;;;;;5092350;28;20165;-67
2021/08/18 02:07:36;;;;;;;26.53;20.57;;;15.10;99.90;;;;;;5092008;28;20180;-67
2021/08/18 02:10:05;;;;;;;26.70;22.23;;;15.10;99.90;;;;;;5090418;28;20843;-67
2021/08/18 02:12:31;;;;;;;29.10;17.53;;;15.10;99.90;;;;;;5091758;28;20177;-72
2021/08/18 02:14:56;;;;;;;23.10;17.60;;;15.10;99.90;;;;;;5092004;28;20192;-70
2021/08/18 02:17:22;;;;;;;29.57;16.63;;;15.10;99.90;;;;;;5092930;28;20650;-72
2021/08/18 02:19:48;;;;;;;23.57;16.73;;;15.10;99.90;;;;;;5093043;28;20676;-70
2021/08/18 02:22:13;;;;;;;27.57;17.27;;;15.10;99.90;;;;;;5091605;28;20291;-70
2021/08/18 02:24:39;;;;;;;26.03;17.33;;;15.00;99.90;;;;;;5093293;28;20177;-71
2021/08/18 02:27:05;;;;;;;26.10;17.83;;;15.10;99.90;;;;;;5091726;28;20169;-72
2021/08/18 02:29:30;;;;;;;28.93;17.23;;;15.10;99.90;;;;;;5091741;28;20286;-70
2021/08/18 02:31:56;;;;;;;25.33;15.47;;;15.10;99.90;;;;;;5092406;28;20178;-71
2021/08/18 02:34:21;;;;;;;24.23;16.07;;;15.10;99.90;;;;;;5092016;28;20220;-71
2021/08/18 02:36:47;;;;;;;23.23;17.17;;;15.10;99.90;;;;;;5092848;28;20166;-71
2021/08/18 02:39:13;;;;;;;22.33;16.67;;;15.10;99.90;;;;;;5092740;28;20744;-74
2021/08/18 02:41:38;;;;;;;23.80;16.77;;;15.20;99.90;;;;;;5092704;28;20255;-72
2021/08/18 02:44:04;;;;;;;24.10;16.40;;;15.10;99.90;;;;;;5092904;28;20169;-72
2021/08/18 02:46:30;;;;;;;27.07;18.37;;;15.10;99.90;;;;;;5092628;28;20532;-71
2021/08/18 02:48:55;;;;;;;20.77;16.10;;;15.10;99.90;;;;;;5091516;28;20193;-74
2021/08/18 02:51:24;;;;;;;25.13;17.97;;;15.10;99.90;;;;;;5092839;28;20177;-70
2021/08/18 02:53:49;;;;;;;24.27;18.37;;;15.20;99.90;;;;;;5091444;28;20187;-71
2021/08/18 02:56:15;;;;;;;30.73;17.17;;;15.20;99.90;;;;;;5092725;28;20524;-71
2021/08/18 02:58:41;;;;;;;22.17;16.00;;;15.30;99.90;;;;;;5092363;28;20181;-71
2021/08/18 03:01:06;;;;;;;23.87;16.90;;;15.30;99.90;;;;;;5091136;28;20690;-72
2021/08/18 03:03:32;;;;;;;23.50;15.60;;;15.30;99.90;;;;;;5092417;28;20201;-73
2021/08/18 03:05:58;;;;;;;26.47;17.40;;;15.30;99.90;;;;;;5092326;28;20245;-72
2021/08/18 03:08:23;;;;;;;24.20;17.50;;;15.30;99.90;;;;;;5092211;28;20255;-72
2021/08/18 03:10:49;;;;;;;23.57;16.20;;;15.20;99.90;;;;;;5092563;28;20174;-72
2021/08/18 03:13:15;;;;;;;29.33;17.53;;;15.30;99.90;;;;;;5092592;28;20763;-70
2021/08/18 03:15:40;;;;;;;22.27;16.43;;;15.30;99.90;;;;;;5092360;28;20169;-71
2021/08/18 03:18:09;;;;;;;22.60;16.23;;;15.10;99.90;;;;;;5092261;28;20586;-71
2021/08/18 03:20:34;;;;;;;22.40;16.73;;;15.20;99.90;;;;;;5092077;28;20209;-72
2021/08/18 03:23:00;;;;;;;25.33;16.13;;;15.20;99.90;;;;;;5092908;28;20174;-70
2021/08/18 03:25:25;;;;;;;27.63;17.30;;;15.10;99.90;;;;;;5095049;28;20174;-71
2021/08/18 03:27:51;;;;;;;22.53;16.17;;;15.20;99.90;;;;;;5095795;28;20269;-72
2021/08/18 03:30:17;;;;;;;22.97;16.60;;;15.20;99.90;;;;;;5095837;28;20188;-73
2021/08/18 03:32:42;;;;;;;31.97;17.17;;;15.20;99.90;;;;;;5096039;28;20174;-73
2021/08/18 03:35:08;;;;;;;26.80;17.57;;;15.10;99.90;;;;;;5094720;28;20251;-72
2021/08/18 03:37:34;;;;;;;27.23;16.90;;;15.20;99.90;;;;;;5094540;28;20650;-72
2021/08/18 03:40:00;;;;;;;31.07;16.57;;;15.20;99.90;;;;;;5095633;28;20197;-69
2021/08/18 03:42:28;;;;;;;20.63;16.53;;;15.10;99.90;;;;;;5095435;28;20232;-72
2021/08/18 03:44:54;;;;;;;36.63;23.47;;;15.00;99.90;;;;;;5096011;28;20180;-70
2021/08/18 03:47:20;;;;;;;19.83;14.27;;;15.10;99.90;;;;;;5096014;28;20226;-71
2021/08/18 03:49:45;;;;;;;21.27;15.50;;;15.10;99.90;;;;;;5095524;28;20196;-71
2021/08/18 03:52:11;;;;;;;20.07;14.63;;;15.00;99.90;;;;;;5094465;28;20174;-72
2021/08/18 03:54:36;;;;;;;21.37;15.27;;;15.00;99.90;;;;;;5094628;28;20185;-68
2021/08/18 03:57:02;;;;;;;24.73;16.07;;;15.00;99.90;;;;;;5093582;28;20173;-66
2021/08/18 03:59:28;;;;;;;23.77;15.53;;;15.00;99.90;;;;;;5093910;28;20209;-66
2021/08/18 04:01:53;;;;;;;19.83;15.00;;;15.00;99.90;;;;;;5094214;28;20189;-68
2021/08/18 04:04:19;;;;;;;20.63;15.47;;;15.00;99.90;;;;;;5092926;28;20178;-66
2021/08/18 04:06:45;;;;;;;25.47;15.50;;;15.10;99.90;;;;;;5094365;28;20169;-66
2021/08/18 04:09:10;;;;;;;21.47;14.93;;;15.00;99.90;;;;;;5092942;28;20198;-66
2021/08/18 04:11:36;;;;;;;23.23;15.90;;;15.00;99.90;;;;;;5094015;28;20666;-66
2021/08/18 04:14:01;;;;;;;25.40;15.93;;;15.10;99.90;;;;;;5092514;28;20185;-66
2021/08/18 04:16:27;;;;;;;23.27;15.50;;;15.10;99.90;;;;;;5094295;28;20215;-66
2021/08/18 04:18:53;;;;;;;23.07;15.57;;;15.10;99.90;;;;;;5139330;22;20678;-66
2021/08/18 04:21:18;;;;;;;22.77;15.93;;;15.10;99.90;;;;;;5072019;28;20709;-66
2021/08/18 04:23:44;;;;;;;21.27;15.37;;;15.20;99.90;;;;;;5073552;28;20181;-66
2021/08/18 04:26:10;;;;;;;26.07;17.10;;;15.10;99.90;;;;;;5072542;28;20632;-66
2021/08/18 04:28:36;;;;;;;31.07;18.87;;;15.20;99.90;;;;;;5072271;28;20167;-67
2021/08/18 04:31:02;;;;;;;29.50;18.30;;;15.20;99.90;;;;;;5072120;28;20278;-66
2021/08/18 04:33:27;;;;;;;21.83;16.73;;;15.20;99.90;;;;;;5071741;28;20170;-66
2021/08/18 04:35:53;;;;;;;28.37;17.20;;;15.20;99.90;;;;;;5071441;28;20178;-66
2021/08/18 04:38:19;;;;;;;28.77;17.53;;;15.20;99.90;;;;;;5073266;28;20174;-66
2021/08/18 04:40:45;;;;;;;28.60;16.27;;;15.20;99.90;;;;;;5071401;28;20201;-67
2021/08/18 04:43:14;;;;;;;27.03;17.67;;;15.20;99.90;;;;;;5072034;28;20181;-66
2021/08/18 04:45:40;;;;;;;27.57;18.27;;;15.30;99.90;;;;;;5073593;28;20176;-66
2021/08/18 04:48:06;;;;;;;29.90;18.30;;;15.20;99.90;;;;;;5072920;28;20588;-66
2021/08/18 04:50:33;;;;;;;30.43;18.27;;;15.20;99.90;;;;;;5071757;28;20190;-66
2021/08/18 04:52:58;;;;;;;31.63;18.60;;;15.30;99.90;;;;;;5072993;28;20170;-66
2021/08/18 04:55:24;;;;;;;32.03;18.93;;;15.30;99.90;;;;;;5071959;28;20180;-66
2021/08/18 04:57:50;;;;;;;28.73;17.70;;;15.20;99.90;;;;;;5071716;28;20174;-66
2021/08/18 05:00:16;;;;;;;28.87;18.23;;;15.20;99.90;;;;;;5071337;28;20224;-67
2021/08/18 05:02:42;;;;;;;32.87;17.40;;;15.20;99.90;;;;;;5071289;28;20202;-67
2021/08/18 05:05:08;;;;;;;31.73;17.53;;;15.30;99.90;;;;;;5073082;28;20219;-67
2021/08/18 05:07:35;;;;;;;34.90;20.80;;;15.30;99.90;;;;;;5071391;28;20731;-68
2021/08/18 05:10:01;;;;;;;34.43;20.23;;;15.30;99.90;;;;;;5072446;28;20186;-67
2021/08/18 05:12:26;;;;;;;36.80;20.60;;;15.40;99.90;;;;;;5071095;28;20210;-68
2021/08/18 05:14:52;;;;;;;39.50;21.83;;;15.40;99.90;;;;;;5071244;28;20208;-67
2021/08/18 05:17:18;;;;;;;34.53;21.63;;;15.40;99.90;;;;;;5071214;28;20186;-68
2021/08/18 05:19:46;;;;;;;40.57;22.23;;;15.50;99.90;;;;;;5070950;28;20313;-67
2021/08/18 05:22:12;;;;;;;40.80;22.10;;;15.50;99.90;;;;;;5072111;28;20206;-68
2021/08/18 05:24:38;;;;;;;36.50;21.20;;;15.50;99.90;;;;;;5071542;28;20182;-68
2021/08/18 05:27:04;;;;;;;42.23;23.03;;;15.50;99.90;;;;;;5070861;28;20178;-67
2021/08/18 05:29:29;;;;;;;44.80;24.10;;;15.50;99.90;;;;;;5071071;28;20233;-67
2021/08/18 05:31:55;;;;;;;44.60;24.60;;;15.50;99.90;;;;;;5070796;28;20627;-67
2021/08/18 05:34:20;;;;;;;39.67;23.37;;;15.50;99.90;;;;;;5070721;28;20188;-67
2021/08/18 05:36:46;;;;;;;44.50;23.83;;;15.50;99.90;;;;;;5072354;28;20192;-68
2021/08/18 05:39:12;;;;;;;45.43;23.93;;;15.60;99.90;;;;;;5070938;28;20194;-68
2021/08/18 05:41:37;;;;;;;49.13;24.93;;;15.60;99.90;;;;;;5070718;28;20296;-67
2021/08/18 05:44:03;;;;;;;48.53;25.30;;;15.70;99.90;;;;;;5071600;28;20596;-68
2021/08/18 05:46:29;;;;;;;54.60;25.90;;;15.70;99.90;;;;;;5070336;28;20170;-67
2021/08/18 05:48:55;;;;;;;49.50;26.70;;;15.70;99.90;;;;;;5071895;28;20901;-68
2021/08/18 05:51:20;;;;;;;45.30;25.17;;;15.70;99.90;;;;;;5071906;28;20228;-67
2021/08/18 05:53:50;;;;;;;44.60;25.37;;;15.80;99.90;;;;;;5070398;28;20577;-67
2021/08/18 05:56:17;;;;;;;49.57;25.10;;;15.80;99.90;;;;;;5071845;28;20174;-67
2021/08/18 05:58:42;;;;;;;45.60;24.87;;;15.90;99.90;;;;;;5071834;28;20549;-67
2021/08/18 06:01:08;;;;;;;40.57;23.03;;;15.90;99.90;;;;;;5070267;28;20216;-67
2021/08/18 06:03:35;;;;;;;47.30;23.43;;;15.90;99.90;;;;;;5070463;28;20185;-68
2021/08/18 06:06:00;;;;;;;42.73;25.70;;;15.90;99.90;;;;;;5071970;28;20198;-67
2021/08/18 06:08:26;;;;;;;40.37;23.37;;;16.00;99.90;;;;;;5071642;28;20224;-67
2021/08/18 06:10:52;;;;;;;35.83;21.60;;;16.00;99.90;;;;;;5070304;28;20217;-68
2021/08/18 06:13:17;;;;;;;36.80;22.17;;;15.90;99.90;;;;;;5070611;28;20186;-68
2021/08/18 06:15:43;;;;;;;39.90;22.13;;;16.10;99.90;;;;;;5070625;28;20178;-68
2021/08/18 06:18:09;;;;;;;38.80;23.37;;;16.10;99.90;;;;;;5069583;28;20269;-68
2021/08/18 06:20:45;;;;;;;32.87;21.73;;;16.20;99.90;;;;;;5071756;28;20221;-67
2021/08/18 06:23:10;;;;;;;35.00;21.23;;;16.30;99.90;;;;;;5070226;28;20189;-67
2021/08/18 06:25:36;;;;;;;33.57;21.97;;;16.30;99.90;;;;;;5070486;28;20178;-67
2021/08/18 06:28:02;;;;;;;28.43;18.67;;;16.30;99.90;;;;;;5071204;28;20685;-66
2021/08/18 06:30:28;;;;;;;31.60;21.00;;;16.40;99.90;;;;;;5069996;28;20201;-68
2021/08/18 06:32:53;;;;;;;30.83;22.33;;;16.40;99.90;;;;;;5070054;28;20196;-67
2021/08/18 06:35:20;;;;;;;27.33;19.23;;;16.50;99.90;;;;;;5071266;28;20174;-67
2021/08/18 06:37:45;;;;;;;26.63;20.20;;;16.50;99.90;;;;;;5071184;28;20178;-68
2021/08/18 06:40:12;;;;;;;26.13;19.23;;;16.70;99.90;;;;;;5069388;28;20194;-67
2021/08/18 06:42:44;;;;;;;25.03;19.43;;;16.80;99.90;;;;;;5070042;28;20210;-68
2021/08/18 06:45:11;;;;;;;26.10;18.27;;;16.80;99.90;;;;;;5056245;28;20588;-67
2021/08/18 06:47:38;;;;;;;23.23;19.40;;;17.00;99.90;;;;;;5070269;28;20235;-67
2021/08/18 06:50:05;;;;;;;22.47;17.67;;;17.00;99.90;;;;;;5069236;28;20605;-67
2021/08/18 06:52:31;;;;;;;22.83;17.67;;;17.00;99.90;;;;;;5070118;28;20269;-67
2021/08/18 06:54:57;;;;;;;20.90;16.07;;;17.10;99.90;;;;;;5069755;28;20186;-67
2021/08/18 06:57:23;;;;;;;22.80;17.77;;;17.10;99.90;;;;;;5072844;28;20180;-67
2021/08/18 06:59:48;;;;;;;20.80;16.57;;;17.20;99.90;;;;;;5074715;28;20293;-68
2021/08/18 07:02:14;;;;;;;22.07;16.47;;;17.20;99.90;;;;;;5075125;28;20210;-67
2021/08/18 07:04:39;;;;;;;20.97;16.20;;;17.30;99.90;;;;;;5074949;28;20181;-67
2021/08/18 07:07:05;;;;;;;18.17;15.03;;;17.20;99.90;;;;;;5075195;28;20169;-66
2021/08/18 07:09:31;;;;;;;18.67;16.60;;;17.30;99.90;;;;;;5074634;28;20202;-67
2021/08/18 07:11:57;;;;;;;18.63;16.43;;;17.30;99.90;;;;;;5073610;28;20232;-68
2021/08/18 07:14:22;;;;;;;18.73;16.50;;;17.30;99.90;;;;;;5074734;28;20186;-67
2021/08/18 07:16:48;;;;;;;16.70;15.00;;;17.40;99.90;;;;;;5073597;28;20182;-67
2021/08/18 07:19:14;;;;;;;19.27;17.17;;;17.30;99.90;;;;;;5073172;28;20218;-68
2021/08/18 07:21:39;;;;;;;20.50;17.07;;;17.30;99.90;;;;;;5074719;28;20208;-66
2021/08/18 07:24:05;;;;;;;19.27;16.97;;;17.30;99.90;;;;;;5073424;28;20190;-68
2021/08/18 07:26:31;;;;;;;18.07;16.07;;;17.20;99.90;;;;;;5074582;28;20620;-67
2021/08/18 07:28:58;;;;;;;19.87;16.50;;;17.20;99.90;;;;;;5074510;28;20170;-69
2021/08/18 07:31:27;;;;;;;21.90;16.93;;;17.20;99.90;;;;;;5073019;28;20213;-67
2021/08/18 07:33:53;;;;;;;18.03;16.13;;;17.20;99.90;;;;;;5074358;28;20174;-68
2021/08/18 07:36:19;;;;;;;24.43;16.50;;;17.30;99.90;;;;;;5074497;28;20188;-68
2021/08/18 07:38:45;;;;;;;18.73;16.03;;;17.30;99.90;;;;;;5072160;28;20185;-67
2021/08/18 07:41:11;;;;;;;17.83;15.37;;;17.30;99.90;;;;;;5071629;28;20572;-67
2021/08/18 07:43:37;;;;;;;18.53;15.57;;;17.30;99.90;;;;;;5072514;28;20730;-68
2021/08/18 07:46:03;;;;;;;18.60;16.50;;;17.30;99.90;;;;;;5072498;28;20265;-67
2021/08/18 07:48:29;;;;;;;19.00;17.00;;;17.30;99.90;;;;;;5072935;28;20174;-67
2021/08/18 07:50:56;;;;;;;19.20;15.53;;;17.20;99.90;;;;;;5073489;28;20222;-68
2021/08/18 07:53:21;;;;;;;16.17;14.40;;;17.10;99.90;;;;;;5072912;28;20252;-67
2021/08/18 07:55:47;;;;;;;17.77;14.77;;;17.00;99.90;;;;;;5073006;28;20178;-67
2021/08/18 07:58:12;;;;;;;18.37;15.00;;;17.00;99.90;;;;;;5072288;28;20182;-67
2021/08/18 08:00:39;;;;;;;16.30;14.00;;;17.10;99.90;;;;;;5055662;28;20194;-67
2021/08/18 08:03:07;;;;;;;14.97;13.33;;;17.10;99.90;;;;;;5072397;28;20239;-67
2021/08/18 08:05:33;;;;;;;16.20;14.57;;;17.10;99.90;;;;;;5073957;28;20205;-68
2021/08/18 08:07:58;;;;;;;15.00;13.40;;;17.10;99.90;;;;;;5071634;28;20210;-68
2021/08/18 08:10:24;;;;;;;15.97;14.37;;;17.10;99.90;;;;;;5073324;28;20205;-68
2021/08/18 08:12:50;;;;;;;15.97;14.30;;;17.10;99.90;;;;;;5073589;28;20248;-67
2021/08/18 08:15:15;;;;;;;15.57;13.97;;;17.10;99.90;;;;;;5073782;28;20232;-67
2021/08/18 08:17:41;;;;;;;16.37;14.67;;;17.00;99.90;;;;;;5072258;28;20182;-67
2021/08/18 08:20:09;;;;;;;14.87;13.40;;;16.80;99.90;;;;;;5071881;28;20213;-67
2021/08/18 08:22:34;;;;;;;14.80;13.30;;;16.70;99.90;;;;;;5073712;28;20206;-67
2021/08/18 08:25:00;;;;;;;14.90;13.40;;;16.70;99.90;;;;;;5073431;28;20674;-66
2021/08/18 08:27:25;;;;;;;14.67;13.10;;;16.70;99.90;;;;;;5073371;28;20267;-67
2021/08/18 08:29:51;;;;;;;14.10;12.70;;;16.70;99.90;;;;;;5073142;28;20212;-67
2021/08/18 08:32:16;;;;;;;13.57;12.13;;;16.60;99.90;;;;;;5071826;28;20549;-67
2021/08/18 08:34:42;;;;;;;13.70;12.40;;;16.50;99.90;;;;;;5071423;28;20185;-67
2021/08/18 08:37:08;;;;;;;13.17;11.93;;;16.60;99.90;;;;;;5071868;28;20177;-67
2021/08/18 08:39:33;;;;;;;13.03;11.73;;;16.50;99.90;;;;;;5072980;28;20197;-67
2021/08/18 08:42:02;;;;;;;13.33;12.00;;;16.50;99.90;;;;;;5071467;28;20620;-67
2021/08/18 08:44:28;;;;;;;12.37;11.17;;;16.50;99.90;;;;;;5073101;28;20170;-66
2021/08/18 08:46:54;;;;;;;13.37;12.07;;;16.50;99.90;;;;;;5072842;28;20612;-66
2021/08/18 08:49:21;;;;;;;14.40;12.90;;;16.50;99.90;;;;;;5071756;28;20201;-67
2021/08/18 08:51:49;;;;;;;12.60;11.37;;;16.70;99.90;;;;;;5071440;28;20178;-67
2021/08/18 08:54:15;;;;;;;13.73;12.33;;;16.70;99.90;;;;;;5072903;28;20185;-67
2021/08/18 08:56:42;;;;;;;11.07;10.07;;;16.80;99.90;;;;;;5071623;28;20361;-67
2021/08/18 08:59:08;;;;;;;10.80;9.70;;;16.70;99.90;;;;;;5071608;28;20654;-67
2021/08/18 09:02:02;;;;;;;8.97;8.27;;;16.50;99.90;;;;;;5072411;28;20425;-67
2021/08/18 09:04:40;;;;;;;7.37;6.87;;;16.40;99.90;;;;;;5071456;28;20170;-67
2021/08/18 09:07:23;;;;;;;7.20;6.70;;;16.30;99.90;;;;;;5072516;28;20181;-67
2021/08/18 09:10:05;;;;;;;7.00;6.57;;;16.20;99.90;;;;;;5072017;28;20194;-67
2021/08/18 09:12:39;;;;;;;7.40;6.90;;;16.10;99.90;;;;;;5071481;28;20189;-67
2021/08/18 09:15:25;;;;;;;7.90;7.50;;;16.20;99.90;;;;;;5072149;28;20218;-66
2021/08/18 09:17:53;;;;;;;6.87;6.40;;;16.40;99.90;;;;;;5072264;28;20217;-67
2021/08/18 09:20:27;;;;;;;6.77;6.30;;;16.50;99.90;;;;;;5070705;28;20567;-67
2021/08/18 09:22:57;;;;;;;7.90;7.40;;;16.60;99.90;;;;;;5071133;28;20239;-66
2021/08/18 09:25:26;;;;;;;7.37;6.87;;;16.80;99.90;;;;;;5070846;28;20182;-67
2021/08/18 09:28:16;;;;;;;7.43;6.83;;;16.90;99.90;;;;;;5072421;28;20195;-67
2021/08/18 09:30:45;;;;;;;7.10;6.60;;;16.90;99.90;;;;;;5066615;28;20206;-67
2021/08/18 09:33:14;;;;;;;7.90;7.40;;;16.70;99.90;;;;;;5052429;28;20177;-67
2021/08/18 09:35:40;;;;;;;7.93;7.33;;;16.70;99.90;;;;;;5072020;28;20209;-67
2021/08/18 09:38:09;;;;;;;7.23;6.73;;;16.70;99.90;;;;;;5070673;28;20566;-66
2021/08/18 09:40:41;;;;;;;7.60;7.10;;;16.80;99.90;;;;;;5071455;28;20255;-67
2021/08/18 09:43:12;;;;;;;8.03;7.43;;;16.80;99.90;;;;;;5070783;28;20596;-67
2021/08/18 09:45:55;;;;;;;8.37;7.87;;;16.90;99.90;;;;;;5071876;28;20210;-67
2021/08/18 09:48:22;;;;;;;8.23;7.53;;;16.80;99.90;;;;;;5071970;28;20223;-67
2021/08/18 09:50:50;;;;;;;9.00;8.33;;;16.70;99.90;;;;;;5071010;28;20190;-67
2021/08/18 09:53:27;;;;;;;8.43;7.63;;;16.60;99.90;;;;;;5071943;28;20216;-67
2021/08/18 09:56:02;;;;;;;8.97;8.27;;;16.60;99.90;;;;;;5070275;28;20178;-67
2021/08/18 09:58:46;;;;;;;7.23;6.67;;;16.70;99.90;;;;;;5070375;28;20634;-67
2021/08/18 10:01:14;;;;;;;8.20;7.50;;;16.80;99.90;;;;;;5051487;28;20203;-67
2021/08/18 10:03:41;;;;;;;7.97;7.47;;;16.90;99.90;;;;;;5050762;28;20213;-67
2021/08/18 10:06:09;;;;;;;9.03;8.33;;;16.90;99.90;;;;;;5050613;28;20179;-67
2021/08/18 10:08:38;;;;;;;8.03;7.43;;;16.90;99.90;;;;;;5066727;28;20185;-67
2021/08/18 10:11:05;;;;;;;8.03;7.53;;;17.00;99.90;;;;;;5064346;28;20234;-67
2021/08/18 10:13:31;;;;;;;7.50;7.00;;;16.80;99.90;;;;;;5051960;28;20179;-67
2021/08/18 10:15:57;;;;;;;7.53;7.03;;;16.80;99.90;;;;;;5071536;28;20593;-67
2021/08/18 10:18:40;;;;;;;7.90;7.00;;;16.80;99.90;;;;;;5071685;28;20181;-67
2021/08/18 10:21:19;;;;;;;7.50;7.00;;;17.10;99.90;;;;;;5070445;28;20217;-67
2021/08/18 10:24:00;;;;;;;8.20;7.60;;;17.50;99.90;;;;;;5071227;28;20173;-67
2021/08/18 10:26:35;;;;;;;6.77;6.37;;;18.10;99.90;;;;;;5071377;28;20187;-67
2021/08/18 10:29:05;;;;;;;7.83;7.33;;;18.50;99.90;;;;;;5071503;28;20235;-67
2021/08/18 10:34:23;;;;;;;7.43;6.93;;;19.00;99.90;;;;;;5071165;28;20189;-67
2021/08/18 10:37:00;;;;;;;7.50;7.10;;;19.30;99.90;;;;;;5069831;28;20209;-68
2021/08/18 10:39:28;;;;;;;6.90;6.50;;;19.40;99.90;;;;;;5069899;28;20275;-67
2021/08/18 10:42:05;;;;;;;6.20;5.90;;;19.60;99.90;;;;;;5071137;28;20236;-68
2021/08/18 10:44:41;;;;;;;6.37;5.97;;;19.70;99.90;;;;;;5071175;28;20541;-67
2021/08/18 10:47:29;;;;;;;6.80;6.50;;;19.60;99.90;;;;;;5071233;28;20526;-68
2021/08/18 10:49:59;;;;;;;6.50;6.17;;;19.50;99.90;;;;;;5069659;28;20206;-68
2021/08/18 10:52:28;;;;;;;7.70;7.20;;;19.50;99.90;;;;;;5069752;28;20224;-67
2021/08/18 10:55:18;;;;;;;6.53;6.13;;;19.40;99.90;;;;;;5069776;28;20174;-68
2021/08/18 10:57:50;;;;;;;6.37;6.00;;;19.50;99.90;;;;;;5065637;28;20198;-67
2021/08/18 11:00:34;;;;;;;6.80;6.20;;;19.40;99.90;;;;;;5070962;28;20273;-67
2021/08/18 11:03:03;;;;;;;6.53;6.23;;;19.60;99.90;;;;;;5070841;28;20211;-68
2021/08/18 11:05:36;;;;;;;6.87;6.37;;;19.60;99.90;;;;;;5071370;28;20255;-68
2021/08/18 11:08:21;;;;;;;6.00;5.70;;;19.40;99.90;;;;;;5071079;28;20206;-67
2021/08/18 11:10:55;;;;;;;6.00;5.60;;;19.00;99.90;;;;;;5070794;28;20201;-68
2021/08/18 11:13:42;;;;;;;5.83;5.43;;;18.70;99.90;;;;;;5071012;28;20169;-68
2021/08/18 11:16:15;;;;;;;6.27;5.70;;;18.70;99.90;;;;;;5071163;28;20186;-67
2021/08/18 11:18:54;;;;;;;7.07;6.30;;;18.50;99.90;;;;;;5069590;28;20264;-67
2021/08/18 11:21:28;;;;;;;6.60;6.20;;;18.70;99.90;;;;;;5069708;28;20205;-67
2021/08/18 11:24:02;;;;;;;6.13;5.83;;;19.10;99.90;;;;;;5069938;28;20182;-67
2021/08/18 11:26:35;;;;;;;6.80;6.40;;;19.70;99.90;;;;;;5070967;28;20179;-68
2021/08/18 11:29:09;;;;;;;7.13;6.63;;;20.30;99.90;;;;;;5070686;28;20227;-68
2021/08/18 11:31:45;;;;;;;6.70;6.30;;;20.90;99.90;;;;;;5070781;28;20235;-68
2021/08/18 11:34:25;;;;;;;7.80;7.30;;;21.40;99.90;;;;;;5069911;28;20189;-68
2021/08/18 11:37:04;;;;;;;6.17;5.87;;;21.80;99.90;;;;;;5069609;28;20206;-68
2021/08/18 11:39:34;;;;;;;7.13;6.67;;;22.10;99.90;;;;;;5069792;28;20229;-68
2021/08/18 11:42:00;;;;;;;6.97;6.50;;;21.90;99.90;;;;;;5070679;28;20540;-68
2021/08/18 11:44:28;;;;;;;7.07;6.43;;;21.90;99.90;;;;;;5073161;28;20284;-68
2021/08/18 11:46:55;;;;;;;6.30;5.90;;;22.00;99.90;;;;;;5074510;28;20707;-68
2021/08/18 11:49:24;;;;;;;9.27;8.57;;;22.20;99.90;;;;;;5074028;28;20235;-68
2021/08/18 11:51:49;;;;;;;7.70;7.10;;;22.60;99.90;;;;;;5072991;28;20572;-69
2021/08/18 11:54:15;;;;;;;8.33;7.67;;;23.00;99.90;;;;;;5072764;28;20185;-68
2021/08/18 11:56:41;;;;;;;9.75;7.55;;;23.30;99.90;;;;;;5072668;28;20178;-68
2021/08/18 11:59:07;;;;;;;8.13;7.53;;;23.70;99.90;;;;;;5074089;28;20202;-68
2021/08/18 12:01:33;;;;;;;8.57;7.82;;;23.80;99.90;;;;;;5073930;28;20569;-68
2021/08/18 12:04:01;;;;;;;10.27;9.37;;;23.60;99.90;;;;;;5072152;28;20260;-68
2021/08/18 12:06:37;;;;;;;10.93;10.03;;;23.00;99.90;;;;;;5074071;28;20174;-67
2021/08/18 12:09:18;;;;;;;11.03;10.13;;;22.30;99.90;;;;;;5056390;28;20189;-67
2021/08/18 12:11:44;;;;;;;10.27;9.37;;;21.90;99.90;;;;;;5073937;28;20162;-68
2021/08/18 12:14:15;;;;;;;9.87;9.03;;;21.40;99.90;;;;;;5073841;28;20675;-67
2021/08/18 12:16:43;;;;;;;10.70;9.70;;;21.30;99.90;;;;;;5073993;28;20166;-68
2021/08/18 12:19:24;;;;;;;10.47;9.37;;;21.20;99.90;;;;;;5072204;28;20283;-68
2021/08/18 12:22:16;;;;;;;9.60;8.97;;;21.40;99.90;;;;;;5072417;28;20225;-68
2021/08/18 12:24:47;;;;;;;9.67;8.77;;;21.60;99.90;;;;;;5073085;28;20674;-67
2021/08/18 12:27:16;;;;;;;9.83;8.93;;;21.60;99.90;;;;;;5073797;28;20631;-67
2021/08/18 12:29:44;;;;;;;8.60;7.93;;;21.40;99.90;;;;;;5071801;28;20194;-67
2021/08/18 12:32:12;;;;;;;9.03;8.43;;;21.10;99.90;;;;;;5072456;28;20174;-67
2021/08/18 12:34:46;;;;;;;6.90;6.40;;;20.70;99.90;;;;;;5072235;28;20265;-67
2021/08/18 12:37:12;;;;;;;7.53;6.83;;;20.30;99.90;;;;;;5073654;28;20198;-67
2021/08/18 12:39:42;;;;;;;8.30;7.70;;;20.00;99.90;;;;;;5072966;28;20259;-67